Thunderstorms From: 22-05-2018 15:00 Until: 23-05-2018 15:00 warning for: Thunderstorms Level: Yellow info button

Although rather usual in this region, locally or potentially dangerous phenomena are expected. (such as local winds, summer thunderstorms, rising streams or high waves) Be aware and pay attention to the latest weather updates, especially if you carry out activities exposed to weather or close to a stream or shoreline. 


Meteo18 Weather Cam more information Meteo18 Weather Cam


warning for Thunderstorms more information blitzortung!


Rain radar more information rain snow radar


Visit our other weather sites:

Template documentation
and downloads

And another site



Weather Underground History page Text

Daily Summary for January 11, 2017 Units:  Metric    English   Both
« Previous Day
Next Day »
Daily Weekly Monthly Yearly Custom
  High: Low: Average:
Temperature: -17.8 °C -15.9 °C -14.4 °C
Dew Point: -17.8 °C -16.1 °C -14.8 °C
Humidity: Humidity % 85 % 96 %
Wind Speed: 0 km/h 0 km/h 11.9 km/h
Wind Gust: 0 km/h - -
Wind:- - WSW
Pressure: 0 hPa 34405.1 hPa -
Precipitation: 12.7 mm    
Historical Graphs
 
 
Tabular Data for January 11, 2017
Time Temperature Dew Point Pressure Wind Wind Speed Wind Gust Humidity Rainfall Rate (Hourly)
-17.8 °C -17.8 °C 0 hPa Calm     Humidity % 0 mm
00:02 -15.7 °C -15.9 °C 34452.6 hPa WNW 10.3 km/h 10.3 km/h 97 % 0 mm
00:07 -15.6 °C -15.8 °C 34452.6 hPa NW 5.1 km/h 12.9 km/h 97 % 0 mm
00:12 -15.6 °C -15.8 °C 34452.6 hPa WNW 7.7 km/h 12.9 km/h 97 % 0 mm
00:17 -15.6 °C -15.8 °C 34452.6 hPa WNW 2.6 km/h 12.9 km/h 97 % 0 mm
00:22 -15.6 °C -15.8 °C 34452.6 hPa WNW 5.1 km/h 12.9 km/h 97 % 0 mm
00:32 -15.6 °C -15.8 °C 34452.6 hPa WNW 7.7 km/h 12.9 km/h 97 % 0 mm
00:42 -15.5 °C -15.7 °C 34452.6 hPa WNW 7.7 km/h 15.6 km/h 97 % 0 mm
00:47 -15.5 °C -15.7 °C 34452.6 hPa WNW 12.9 km/h 15.6 km/h 97 % 0 mm
00:52 -15.5 °C -15.7 °C 34462.7 hPa WNW 7.7 km/h 20.8 km/h 97 % 0 mm
00:57 -15.5 °C -15.7 °C 34462.7 hPa WNW 7.7 km/h 20.8 km/h 97 % 0 mm
01:02 -15.5 °C -15.7 °C 34452.6 hPa NW 10.3 km/h 20.8 km/h 97 % 0 mm
01:07 -15.6 °C -15.9 °C 34442.4 hPa West 10.3 km/h 20.8 km/h 96 % 0 mm
01:12 -15.6 °C -15.9 °C 34452.6 hPa West 7.7 km/h 20.8 km/h 96 % 0 mm
01:17 -15.6 °C -15.8 °C 34442.4 hPa WNW 2.6 km/h 20.8 km/h 97 % 0 mm
01:22 -15.6 °C -15.8 °C 34452.6 hPa WNW 7.7 km/h 20.8 km/h 97 % 0 mm
01:27 -15.5 °C -15.7 °C 34442.4 hPa West 7.7 km/h 20.8 km/h 97 % 0 mm
01:32 -15.4 °C -15.7 °C 34452.6 hPa NW 7.7 km/h 18.2 km/h 97 % 0 mm
01:37 -15.4 °C -15.8 °C 34462.7 hPa West 10.3 km/h 18.2 km/h 96 % 0 mm
01:42 -15.4 °C -15.8 °C 34462.7 hPa West 2.6 km/h 18.2 km/h 96 % 0 mm
01:47 -15.4 °C -15.8 °C 34462.7 hPa Calm   15.6 km/h 96 % 0 mm
01:52 -15.4 °C -15.8 °C 34462.7 hPa Calm   10.3 km/h 96 % 0 mm
01:57 -15.6 °C -15.9 °C 34462.7 hPa Calm   10.3 km/h 96 % 0 mm
02:02 -15.7 °C -16 °C 34462.7 hPa SE 2.6 km/h 2.6 km/h 96 % 0 mm
02:07 -15.7 °C -16 °C 34462.7 hPa Calm   2.6 km/h 96 % 0 mm
02:12 -15.7 °C -16 °C 34462.7 hPa Calm   2.6 km/h 96 % 0 mm
02:17 -15.6 °C -15.8 °C 34452.6 hPa Calm   2.6 km/h 97 % 0 mm
02:22 -15.6 °C -15.8 °C 34462.7 hPa Calm   2.6 km/h 97 % 0 mm
02:27 -15.6 °C -15.8 °C 34462.7 hPa WNW 5.1 km/h 5.1 km/h 97 % 0 mm
02:32 -15.6 °C -15.9 °C 34452.6 hPa WNW 2.6 km/h 5.1 km/h 96 % 0 mm
02:37 -15.6 °C -15.8 °C 34462.7 hPa WNW 2.6 km/h 5.1 km/h 97 % 0 mm
02:42 -15.6 °C -15.8 °C 34462.7 hPa WNW 2.6 km/h 10.3 km/h 97 % 0 mm
02:47 -15.5 °C -15.8 °C 34476.3 hPa WSW 5.1 km/h 12.9 km/h 96 % 0 mm
02:52 -15.5 °C -15.8 °C 34462.7 hPa WSW 2.6 km/h 12.9 km/h 96 % 0 mm
02:57 -15.4 °C -15.8 °C 34462.7 hPa West 5.1 km/h 12.9 km/h 96 % 0 mm
03:02 -15.4 °C -15.8 °C 34462.7 hPa Calm   12.9 km/h 96 % 0 mm
03:07 -15.4 °C -15.8 °C 34462.7 hPa Calm   7.7 km/h 96 % 0 mm
03:12 -15.4 °C -15.8 °C 34452.6 hPa WSW 5.1 km/h 7.7 km/h 96 % 0 mm
03:17 -15.4 °C -15.8 °C 34452.6 hPa SW 5.1 km/h 5.1 km/h 96 % 0 mm
03:22 -15.5 °C -15.9 °C 34452.6 hPa Calm   7.7 km/h 95 % 0 mm
03:27 -15.7 °C -16.1 °C 34442.4 hPa Calm   7.7 km/h 95 % 0 mm
03:32 -15.7 °C -16.1 °C 34452.6 hPa Calm   7.7 km/h 95 % 0 mm
03:37 -15.8 °C -16.1 °C 34452.6 hPa Calm     96 % 0 mm
03:42 -15.8 °C -16.1 °C 34452.6 hPa Calm     96 % 0 mm
03:47 -15.8 °C -16 °C 34452.6 hPa SSW 2.6 km/h 2.6 km/h 97 % 0 mm
03:52 -15.7 °C -15.9 °C 34462.7 hPa SW 2.6 km/h 5.1 km/h 97 % 0 mm
03:57 -15.7 °C -15.9 °C 34462.7 hPa Calm   5.1 km/h 97 % 0 mm
04:02 -15.7 °C -15.9 °C 34462.7 hPa WSW 5.1 km/h 5.1 km/h 97 % 0 mm
04:07 -15.6 °C -15.8 °C 34462.7 hPa SW 2.6 km/h 7.7 km/h 97 % 0 mm
04:12 -15.6 °C -15.8 °C 34462.7 hPa SW 2.6 km/h 7.7 km/h 97 % 0 mm
04:17 -15.5 °C -15.7 °C 34462.7 hPa SW 2.6 km/h 10.3 km/h 97 % 0 mm
04:22 -15.5 °C -15.7 °C 34452.6 hPa Calm   10.3 km/h 97 % 0 mm
04:27 -15.6 °C -15.8 °C 34452.6 hPa Calm   10.3 km/h 97 % 0 mm
04:32 -15.7 °C -16 °C 34442.4 hPa Calm   7.7 km/h 96 % 0 mm
04:37 -15.7 °C -16.1 °C 34442.4 hPa SSE 5.1 km/h 7.7 km/h 96 % 0 mm
04:42 -15.8 °C -16.1 °C 34442.4 hPa SSW 5.1 km/h 7.7 km/h 96 % 0 mm
04:47 -15.8 °C -16 °C 34452.6 hPa SW 10.3 km/h 10.3 km/h 97 % 0 mm
04:52 -15.8 °C -16 °C 34462.7 hPa SW 7.7 km/h 7.7 km/h 97 % 0 mm
04:57 -15.8 °C -16 °C 34462.7 hPa SW 5.1 km/h 15.6 km/h 97 % 0 mm
05:02 -15.8 °C -16 °C 34462.7 hPa SW 7.7 km/h 15.6 km/h 97 % 0 mm
05:07 -15.7 °C -15.9 °C 34462.7 hPa West 10.3 km/h 10.3 km/h 97 % 0 mm
05:12 -15.7 °C -15.9 °C 34452.6 hPa WSW 5.1 km/h 12.9 km/h 97 % 0 mm
05:17 -15.7 °C -15.9 °C 34452.6 hPa West 5.1 km/h 18.2 km/h 97 % 0 mm
05:22 -15.7 °C -15.9 °C 34462.7 hPa WSW 5.1 km/h 18.2 km/h 97 % 0 mm
05:27 -15.7 °C -15.9 °C 34462.7 hPa WSW 5.1 km/h 18.2 km/h 97 % 0 mm
05:32 -15.7 °C -15.9 °C 34462.7 hPa SW 2.6 km/h 18.2 km/h 97 % 0 mm
05:37 -15.7 °C -15.9 °C 34452.6 hPa SW 7.7 km/h 12.9 km/h 97 % 0 mm
05:42 -15.7 °C -15.9 °C 34452.6 hPa West 12.9 km/h 12.9 km/h 97 % 0 mm
05:47 -15.8 °C -16 °C 34452.6 hPa WSW 12.9 km/h 15.6 km/h 97 % 0 mm
05:52 -15.8 °C -16 °C 34442.4 hPa WSW 12.9 km/h 15.6 km/h 97 % 0 mm
05:57 -15.8 °C -16 °C 34452.6 hPa West 10.3 km/h 20.8 km/h 97 % 0 mm
06:02 -15.8 °C -16 °C 34442.4 hPa WSW 10.3 km/h 20.8 km/h 97 % 0 mm
06:07 -15.8 °C -15.9 °C 34442.4 hPa WSW 7.7 km/h 28.5 km/h 98 % 0 mm
06:12 -15.8 °C -15.9 °C 34442.4 hPa WSW 10.3 km/h 28.5 km/h 98 % 0 mm
06:17 -15.8 °C -15.9 °C 34442.4 hPa SSW 7.7 km/h 28.5 km/h 98 % 0 mm
06:22 -15.8 °C -16 °C 34442.4 hPa SW 5.1 km/h 28.5 km/h 98 % 0 mm
06:32 -15.9 °C -16.1 °C 34442.4 hPa SW 7.7 km/h 25.9 km/h 98 % 0 mm
06:37 -15.9 °C -16.1 °C 34442.4 hPa SSW 10.3 km/h 23.3 km/h 98 % 0 mm
06:42 -15.9 °C -16.1 °C 34452.6 hPa SW 5.1 km/h 23.3 km/h 98 % 0 mm
06:47 -15.9 °C -16.1 °C 34442.4 hPa South 7.7 km/h 23.3 km/h 98 % 0 mm
06:52 -15.9 °C -16.1 °C 34452.6 hPa SW 12.9 km/h 23.3 km/h 98 % 0 mm
06:57 -15.9 °C -16.1 °C 34452.6 hPa SW 5.1 km/h 18.2 km/h 98 % 0 mm
07:02 -15.9 °C -16.1 °C 34452.6 hPa SW 7.7 km/h 18.2 km/h 98 % 0 mm
07:12 -15.9 °C -16.1 °C 34462.7 hPa SW 15.6 km/h 20.8 km/h 98 % 0 mm
07:17 -15.9 °C -16.1 °C 34462.7 hPa WSW 10.3 km/h 20.8 km/h 98 % 0 mm
07:22 -15.8 °C -16 °C 34462.7 hPa SW 7.7 km/h 23.3 km/h 98 % 0 mm
07:27 -15.8 °C -16 °C 34476.3 hPa SW 10.3 km/h 23.3 km/h 98 % 0 mm
07:32 -15.8 °C -16 °C 34476.3 hPa WSW 12.9 km/h 23.3 km/h 98 % 0 mm
07:37 -15.8 °C -15.9 °C 34476.3 hPa SSW 7.7 km/h 23.3 km/h 98 % 0 mm
07:42 -15.8 °C -15.9 °C 34462.7 hPa SW 10.3 km/h 23.3 km/h 98 % 0 mm
07:47 -15.8 °C -15.9 °C 34462.7 hPa SW 12.9 km/h 23.3 km/h 98 % 0 mm
07:52 -15.8 °C -15.9 °C 34462.7 hPa SSW 18.2 km/h 23.3 km/h 98 % 0 mm
07:57 -15.7 °C -15.9 °C 34462.7 hPa SW 10.3 km/h 25.9 km/h 98 % 0 mm
08:02 -15.7 °C -15.9 °C 34462.7 hPa WSW 12.9 km/h 25.9 km/h 98 % 0 mm
08:07 -15.7 °C -15.9 °C 34462.7 hPa SW 15.6 km/h 23.3 km/h 98 % 0 mm
08:12 -15.7 °C -15.9 °C 34462.7 hPa SW 12.9 km/h 23.3 km/h 98 % 0 mm
08:17 -15.7 °C -15.8 °C 34462.7 hPa SSW 7.7 km/h 28.5 km/h 98 % 0 mm
08:22 -15.7 °C -15.8 °C 34462.7 hPa SW 18.2 km/h 28.5 km/h 98 % 0 mm
08:32 -15.7 °C -15.8 °C 34462.7 hPa SW 18.2 km/h 31.1 km/h 98 % 0 mm
08:37 -15.6 °C -15.8 °C 34462.7 hPa SW 15.6 km/h 28.5 km/h 98 % 0 mm
08:42 -15.6 °C -15.8 °C 34462.7 hPa SW 15.6 km/h 28.5 km/h 98 % 0 mm
08:47 -15.6 °C -15.8 °C 34462.7 hPa SSW 7.7 km/h 25.9 km/h 98 % 0 mm
08:52 -15.6 °C -15.7 °C 34462.7 hPa SW 10.3 km/h 25.9 km/h 98 % 0 mm
08:57 -15.6 °C -15.7 °C 34462.7 hPa SW 5.1 km/h 20.8 km/h 98 % 0 mm
09:02 -15.5 °C -15.7 °C 34462.7 hPa South 15.6 km/h 20.8 km/h 98 % 0 mm
09:07 -15.4 °C -15.6 °C 34462.7 hPa SW 25.9 km/h 25.9 km/h 98 % 0 mm
09:12 -15.4 °C -15.6 °C 34462.7 hPa SSW 10.3 km/h 23.3 km/h 98 % 7.62 mm
09:17 -15.4 °C -15.6 °C 34462.7 hPa SSW 18.2 km/h 28.5 km/h 98 % 7.62 mm
09:22 -15.3 °C -15.5 °C 34462.7 hPa SSW 10.3 km/h 28.5 km/h 98 % 7.62 mm
09:32 -15.3 °C -15.5 °C 34462.7 hPa SW 18.2 km/h 25.9 km/h 98 % 7.62 mm
09:37 -15.3 °C -15.5 °C 34462.7 hPa South 15.6 km/h 23.3 km/h 98 % 7.62 mm
09:42 -15.3 °C -15.5 °C 34452.6 hPa South 12.9 km/h 23.3 km/h 98 % 7.62 mm
09:47 -15.3 °C -15.4 °C 34462.7 hPa SW 18.2 km/h 23.3 km/h 98 % 7.62 mm
09:52 -15.2 °C -15.4 °C 34462.7 hPa SSW 18.2 km/h 23.3 km/h 98 % 7.62 mm
10:02 -15.2 °C -15.3 °C 34462.7 hPa SW 10.3 km/h 28.5 km/h 98 % 7.62 mm
10:07 -15.2 °C -15.3 °C 34462.7 hPa SW 33.6 km/h 33.6 km/h 98 % 7.62 mm
10:12 -15.1 °C -15.3 °C 34462.7 hPa SSW 12.9 km/h 33.6 km/h 98 % 0 mm
10:17 -15.1 °C -15.3 °C 34462.7 hPa SSW 10.3 km/h 33.6 km/h 98 % 0 mm
10:22 -15.1 °C -15.3 °C 34462.7 hPa SSW 18.2 km/h 33.6 km/h 98 % 0 mm
10:27 -15.1 °C -15.3 °C 34462.7 hPa SW 18.2 km/h 31.1 km/h 98 % 0 mm
10:32 -15.1 °C -15.3 °C 34452.6 hPa SW 10.3 km/h 28.5 km/h 98 % 0 mm
10:37 -15.1 °C -15.2 °C 34452.6 hPa SW 20.8 km/h 28.5 km/h 98 % 0 mm
10:42 -14.9 °C -15.1 °C 34452.6 hPa SW 23.3 km/h 38.8 km/h 98 % 0 mm
10:47 -14.9 °C -15.1 °C 34462.7 hPa SW 28.5 km/h 38.8 km/h 98 % 0 mm
10:52 -14.9 °C -15.1 °C 34462.7 hPa SW 18.2 km/h 38.8 km/h 98 % 0 mm
10:57 -14.9 °C -15.1 °C 34462.7 hPa WSW 25.9 km/h 38.8 km/h 98 % 0 mm
11:07 -14.8 °C -15 °C 34462.7 hPa SW 15.6 km/h 33.6 km/h 98 % 0 mm
11:12 -14.8 °C -15 °C 34462.7 hPa WSW 18.2 km/h 33.6 km/h 98 % 0 mm
11:22 -14.8 °C -14.9 °C 34462.7 hPa SW 28.5 km/h 33.6 km/h 98 % 0 mm
11:27 -14.7 °C -14.8 °C 34462.7 hPa SW 33.6 km/h 33.6 km/h 98 % 0 mm
11:32 -14.6 °C -14.8 °C 34462.7 hPa NW 20.8 km/h 36.2 km/h 98 % 0 mm
11:37 -14.6 °C -14.7 °C 34462.7 hPa West 28.5 km/h 38.8 km/h 98 % 0 mm
11:42 -14.6 °C -14.6 °C 34462.7 hPa SW 33.6 km/h 38.8 km/h 99 % 0 mm
11:47 -14.5 °C -14.7 °C 34462.7 hPa West 28.5 km/h 38.8 km/h 98 % 0 mm
11:52 -14.5 °C -14.7 °C 34452.6 hPa SSW 23.3 km/h 49.2 km/h 98 % 0 mm
11:57 -14.4 °C -14.5 °C 34452.6 hPa WSW 28.5 km/h 49.2 km/h 99 % 7.62 mm
12:02 -14.4 °C -14.5 °C 34452.6 hPa SW 25.9 km/h 41.4 km/h 99 % 7.62 mm
12:07 -14.4 °C -14.6 °C 34442.4 hPa SW 15.6 km/h 41.4 km/h 98 % 7.62 mm
12:12 -14.4 °C -14.6 °C 34442.4 hPa WSW 12.9 km/h 41.4 km/h 98 % 7.62 mm
12:17 -14.3 °C -14.4 °C 34442.4 hPa WSW 15.6 km/h 36.2 km/h 99 % 7.62 mm
12:22 -14.3 °C -14.4 °C 34442.4 hPa SW 25.9 km/h 36.2 km/h 98 % 7.62 mm
12:27 -14.3 °C -14.3 °C 34442.4 hPa SW 10.3 km/h 36.2 km/h 99 % 7.62 mm
12:32 -14.2 °C -14.3 °C 34442.4 hPa WSW 15.6 km/h 36.2 km/h 99 % 7.62 mm
12:37 -14.2 °C -14.3 °C 34428.8 hPa SSW 15.6 km/h 41.4 km/h 99 % 7.62 mm
12:42 -14.2 °C -14.3 °C 34428.8 hPa WSW 33.6 km/h 41.4 km/h 98 % 7.62 mm
12:47 -14.2 °C -14.3 °C 34428.8 hPa SW 15.6 km/h 44.1 km/h 98 % 7.62 mm
12:52 -14.1 °C -14.3 °C 34428.8 hPa WSW 18.2 km/h 44.1 km/h 98 % 0 mm
12:57 -14.1 °C -14.3 °C 34428.8 hPa SW 23.3 km/h 44.1 km/h 98 % 0 mm
13:02 -14.1 °C -14.2 °C 34418.7 hPa WSW 33.6 km/h 44.1 km/h 98 % 0 mm
13:07 -14.1 °C -14.2 °C 34418.7 hPa SW 33.6 km/h 49.2 km/h 98 % 0 mm
13:12 -14 °C -14.2 °C 34418.7 hPa WSW 28.5 km/h 49.2 km/h 98 % 0 mm
13:17 -14 °C -14.2 °C 34418.7 hPa SW 28.5 km/h 49.2 km/h 98 % 0 mm
13:22 -14 °C -14.2 °C 34418.7 hPa SSW 20.8 km/h 41.4 km/h 98 % 0 mm
13:27 -14 °C -14.2 °C 34418.7 hPa SW 49.2 km/h 49.2 km/h 98 % 0 mm
13:32 -14 °C -14.2 °C 34418.7 hPa WSW 15.6 km/h 49.2 km/h 98 % 0 mm
13:37 -13.9 °C -14.1 °C 34418.7 hPa SW 12.9 km/h 49.2 km/h 98 % 0 mm
13:42 -13.9 °C -14.1 °C 34418.7 hPa SW 15.6 km/h 49.2 km/h 98 % 0 mm
13:47 -13.9 °C -14.1 °C 34418.7 hPa SW 12.9 km/h 44.1 km/h 98 % 0 mm
13:52 -13.9 °C -14.1 °C 34418.7 hPa SSW 18.2 km/h 36.2 km/h 98 % 0 mm
13:57 -13.9 °C -14.1 °C 34405.1 hPa SW 15.6 km/h 36.2 km/h 98 % 0 mm
14:02 -13.8 °C -14 °C 34405.1 hPa SW 15.6 km/h 36.2 km/h 98 % 0 mm
14:12 -13.8 °C -14 °C 34405.1 hPa WSW 15.6 km/h 31.1 km/h 98 % 0 mm
14:17 -13.8 °C -13.9 °C 34405.1 hPa WSW 10.3 km/h 33.6 km/h 98 % 0 mm
14:22 -13.8 °C -13.9 °C 34405.1 hPa West 12.9 km/h 36.2 km/h 98 % 0 mm
14:27 -13.7 °C -13.9 °C 34405.1 hPa West 15.6 km/h 36.2 km/h 98 % 0 mm
14:32 -13.7 °C -13.9 °C 34405.1 hPa WNW 20.8 km/h 36.2 km/h 98 % 0 mm
14:37 -13.7 °C -13.9 °C 34405.1 hPa West 23.3 km/h 36.2 km/h 98 % 0 mm
14:42 -13.7 °C -13.8 °C 34405.1 hPa SW 18.2 km/h 41.4 km/h 98 % 0 mm
14:47 -13.7 °C -13.8 °C 34405.1 hPa SW 15.6 km/h 41.4 km/h 98 % 0 mm
14:57 -13.6 °C -13.8 °C 34405.1 hPa SW 25.9 km/h 38.8 km/h 98 % 0 mm
15:02 -13.6 °C -13.7 °C 34405.1 hPa West 25.9 km/h 38.8 km/h 98 % 0 mm
15:07 -13.6 °C -13.7 °C 34405.1 hPa SW 5.1 km/h 36.2 km/h 98 % 0 mm
15:12 -13.5 °C -13.7 °C 34405.1 hPa SW 23.3 km/h 36.2 km/h 98 % 0 mm
15:17 -13.5 °C -13.7 °C 34405.1 hPa SW 18.2 km/h 36.2 km/h 98 % 0 mm
15:22 -13.5 °C -13.7 °C 34405.1 hPa WSW 15.6 km/h 31.1 km/h 98 % 0 mm
15:32 -13.4 °C -13.6 °C 34405.1 hPa SW 7.7 km/h 31.1 km/h 98 % 0 mm
15:37 -13.4 °C -13.6 °C 34405.1 hPa WSW 10.3 km/h 31.1 km/h 98 % 0 mm
15:42 -13.4 °C -13.6 °C 34405.1 hPa WSW 15.6 km/h 31.1 km/h 98 % 0 mm
15:47 -13.4 °C -13.6 °C 34418.7 hPa SW 20.8 km/h 31.1 km/h 98 % 0 mm
15:52 -13.4 °C -13.6 °C 34418.7 hPa WSW 15.6 km/h 33.6 km/h 98 % 0 mm
15:57 -13.4 °C -13.6 °C 34418.7 hPa SW 12.9 km/h 33.6 km/h 98 % 0 mm
16:02 -13.4 °C -13.6 °C 34418.7 hPa West 5.1 km/h 31.1 km/h 98 % 0 mm
16:07 -13.4 °C -13.6 °C 34418.7 hPa SW 10.3 km/h 31.1 km/h 98 % 0 mm
16:12 -13.3 °C -13.5 °C 34418.7 hPa SSW 18.2 km/h 31.1 km/h 98 % 0 mm
16:17 -13.3 °C -13.5 °C 34418.7 hPa WSW 12.9 km/h 31.1 km/h 98 % 0 mm
16:22 -13.3 °C -13.5 °C 34405.1 hPa WSW 10.3 km/h 31.1 km/h 98 % 0 mm
16:27 -13.3 °C -13.4 °C 34418.7 hPa SW 10.3 km/h 28.5 km/h 98 % 0 mm
16:32 -13.3 °C -13.4 °C 34418.7 hPa WSW 18.2 km/h 31.1 km/h 98 % 0 mm
16:37 -13.3 °C -13.4 °C 34418.7 hPa SW 10.3 km/h 31.1 km/h 98 % 0 mm
16:42 -13.3 °C -13.4 °C 34418.7 hPa SW 18.2 km/h 31.1 km/h 98 % 0 mm
16:52 -13.2 °C -13.4 °C 34418.7 hPa West 12.9 km/h 31.1 km/h 98 % 0 mm
16:57 -13.2 °C -13.4 °C 34428.8 hPa West 10.3 km/h 33.6 km/h 98 % 0 mm
17:02 -13.2 °C -13.4 °C 34428.8 hPa West 10.3 km/h 33.6 km/h 97 % 0 mm
17:07 -13.2 °C -13.4 °C 34442.4 hPa West 20.8 km/h 33.6 km/h 97 % 0 mm
17:12 -13.2 °C -13.4 °C 34442.4 hPa WSW 25.9 km/h 28.5 km/h 97 % 0 mm
17:17 -13.2 °C -13.4 °C 34442.4 hPa West 18.2 km/h 28.5 km/h 97 % 0 mm
17:22 -13.2 °C -13.4 °C 34442.4 hPa West 18.2 km/h 31.1 km/h 97 % 0 mm
17:27 -13.1 °C -13.3 °C 34442.4 hPa West 7.7 km/h 31.1 km/h 97 % 0 mm
17:32 -13.1 °C -13.3 °C 34442.4 hPa West 10.3 km/h 28.5 km/h 97 % 0 mm
17:37 -13.1 °C -13.3 °C 34442.4 hPa WSW 18.2 km/h 28.5 km/h 97 % 0 mm
17:42 -13.1 °C -13.4 °C 34442.4 hPa WSW 18.2 km/h 28.5 km/h 96 % 0 mm
17:47 -13 °C -13.3 °C 34442.4 hPa WSW 15.6 km/h 25.9 km/h 96 % 0 mm
17:52 -12.9 °C -13.4 °C 34442.4 hPa WSW 20.8 km/h 31.1 km/h 95 % 0 mm
18:02 -12.9 °C -13.4 °C 34452.6 hPa WSW 15.6 km/h 31.1 km/h 94 % 0 mm
18:07 -12.9 °C -13.4 °C 34452.6 hPa West 23.3 km/h 28.5 km/h 94 % 0 mm
18:12 -12.8 °C -13.3 °C 34462.7 hPa West 12.9 km/h 28.5 km/h 94 % 0 mm
18:17 -12.8 °C -13.3 °C 34462.7 hPa West 18.2 km/h 28.5 km/h 94 % 0 mm
18:22 -12.8 °C -13.3 °C 34462.7 hPa WSW 10.3 km/h 25.9 km/h 94 % 0 mm
18:27 -12.8 °C -13.4 °C 34462.7 hPa West 23.3 km/h 28.5 km/h 93 % 0 mm
18:32 -12.7 °C -13.3 °C 34462.7 hPa WSW 18.2 km/h 28.5 km/h 93 % 0 mm
18:37 -12.7 °C -13.3 °C 34462.7 hPa West 12.9 km/h 33.6 km/h 93 % 0 mm
18:42 -12.7 °C -13.3 °C 34462.7 hPa West 12.9 km/h 33.6 km/h 93 % 0 mm
18:47 -12.7 °C -13.4 °C 34462.7 hPa West 18.2 km/h 31.1 km/h 92 % 0 mm
18:52 -12.7 °C -13.3 °C 34462.7 hPa WSW 15.6 km/h 25.9 km/h 92 % 0 mm
18:57 -12.7 °C -13.4 °C 34462.7 hPa West 18.2 km/h 25.9 km/h 92 % 0 mm
19:02 -12.7 °C -13.4 °C 34462.7 hPa WSW 12.9 km/h 25.9 km/h 92 % 0 mm
19:07 -12.7 °C -13.4 °C 34476.3 hPa WSW 15.6 km/h 31.1 km/h 92 % 0 mm
19:12 -12.7 °C -13.4 °C 34476.3 hPa SW 10.3 km/h 31.1 km/h 92 % 0 mm
19:17 -12.8 °C -13.4 °C 34476.3 hPa SW 20.8 km/h 31.1 km/h 93 % 0 mm
19:22 -12.8 °C -13.4 °C 34476.3 hPa West 10.3 km/h 23.3 km/h 93 % 0 mm
19:27 -12.8 °C -13.4 °C 34476.3 hPa WSW 7.7 km/h 23.3 km/h 93 % 0 mm
19:32 -12.8 °C -13.4 °C 34476.3 hPa SW 7.7 km/h 23.3 km/h 93 % 0 mm
19:37 -12.9 °C -13.4 °C 34476.3 hPa WSW 2.6 km/h 15.6 km/h 94 % 0 mm
19:42 -12.9 °C -13.5 °C 34476.3 hPa WSW 7.7 km/h 18.2 km/h 93 % 0 mm
19:47 -12.9 °C -13.5 °C 34476.3 hPa SW 10.3 km/h 20.8 km/h 93 % 0 mm
19:52 -12.9 °C -13.5 °C 34476.3 hPa Calm   20.8 km/h 93 % 0 mm
19:57 -12.9 °C -13.6 °C 34476.3 hPa WSW 7.7 km/h 20.8 km/h 93 % 0 mm
20:02 -12.9 °C -13.6 °C 34486.4 hPa SW 2.6 km/h 20.8 km/h 93 % 0 mm
20:07 -12.9 °C -13.4 °C 34486.4 hPa SW 7.7 km/h 10.3 km/h 94 % 0 mm
20:12 -12.9 °C -13.6 °C 34486.4 hPa SW 10.3 km/h 15.6 km/h 93 % 0 mm
20:22 -13 °C -13.6 °C 34496.6 hPa SW 7.7 km/h 15.6 km/h 93 % 0 mm
20:32 -13.1 °C -13.7 °C 34496.6 hPa SW 12.9 km/h 15.6 km/h 93 % 0 mm
20:42 -13.1 °C -13.7 °C 34510.1 hPa SW 7.7 km/h 20.8 km/h 93 % 0 mm
20:47 -13.1 °C -13.7 °C 34510.1 hPa WSW 7.7 km/h 20.8 km/h 93 % 0 mm
20:52 -13.1 °C -13.7 °C 34510.1 hPa WSW 7.7 km/h 20.8 km/h 93 % 0 mm
20:57 -13.1 °C -13.7 °C 34510.1 hPa SW 5.1 km/h 15.6 km/h 93 % 0 mm
21:02 -13.1 °C -13.8 °C 34510.1 hPa SW 7.7 km/h 15.6 km/h 92 % 0 mm
21:12 -13.1 °C -13.7 °C 34510.1 hPa WSW 7.7 km/h 18.2 km/h 92 % 0 mm
21:17 -13.1 °C -13.7 °C 34510.1 hPa West 7.7 km/h 18.2 km/h 92 % 0 mm
21:27 -13.1 °C -13.8 °C 34520.3 hPa WSW 7.7 km/h 12.9 km/h 92 % 0 mm
21:32 -13.1 °C -13.9 °C 34520.3 hPa West 5.1 km/h 12.9 km/h 91 % 0 mm
21:42 -13.1 °C -13.9 °C 34533.8 hPa West 2.6 km/h 12.9 km/h 91 % 0 mm
21:52 -12.9 °C -14 °C 34533.8 hPa West 2.6 km/h 18.2 km/h 88 % 0 mm
21:57 -12.9 °C -14.1 °C 34533.8 hPa WNW 2.6 km/h 20.8 km/h 87 % 0 mm
22:02 -12.9 °C -14.1 °C 34533.8 hPa WNW 2.6 km/h 20.8 km/h 87 % 0 mm
22:07 -13 °C -14.1 °C 34533.8 hPa West 5.1 km/h 12.9 km/h 87 % 0 mm
22:12 -13 °C -14.1 °C 34533.8 hPa WNW 2.6 km/h 12.9 km/h 88 % 0 mm
22:17 -13.1 °C -14.1 °C 34533.8 hPa WNW 7.7 km/h 18.2 km/h 88 % 0 mm
22:22 -13.1 °C -14 °C 34533.8 hPa West 7.7 km/h 18.2 km/h 89 % 0 mm
22:27 -13.1 °C -14 °C 34544 hPa WNW 12.9 km/h 18.2 km/h 89 % 0 mm
22:32 -13.1 °C -14.1 °C 34533.8 hPa WNW 7.7 km/h 20.8 km/h 88 % 0 mm
22:37 -13.1 °C -14.1 °C 34533.8 hPa WNW 15.6 km/h 25.9 km/h 88 % 0 mm
22:42 -13.1 °C -14.2 °C 34544 hPa West 18.2 km/h 31.1 km/h 88 % 0 mm
22:47 -13.1 °C -14.2 °C 34554.1 hPa WNW 15.6 km/h 31.1 km/h 87 % 0 mm
22:52 -13.1 °C -14.2 °C 34554.1 hPa WNW 18.2 km/h 28.5 km/h 87 % 0 mm
23:02 -13.1 °C -14.3 °C 34554.1 hPa WNW 12.9 km/h 28.5 km/h 86 % 0 mm
23:12 -13.2 °C -14.4 °C 34567.7 hPa WNW 7.7 km/h 28.5 km/h 86 % 0 mm
23:17 -13.3 °C -14.5 °C 34567.7 hPa WNW 12.9 km/h 25.9 km/h 86 % 0 mm
23:22 -13.3 °C -14.5 °C 34567.7 hPa West 7.7 km/h 25.9 km/h 86 % 0 mm
23:27 -13.3 °C -14.5 °C 34567.7 hPa WNW 28.5 km/h 38.8 km/h 86 % 0 mm
23:32 -13.3 °C -14.7 °C 34567.7 hPa West 23.3 km/h 38.8 km/h 85 % 0 mm
23:37 -13.3 °C -14.7 °C 34567.7 hPa West 5.1 km/h 38.8 km/h 85 % 0 mm
23:42 -13.4 °C -14.6 °C 34567.7 hPa WNW 7.7 km/h 28.5 km/h 86 % 0 mm
23:47 -13.4 °C -14.7 °C 34567.7 hPa West 2.6 km/h 25.9 km/h 85 % 0 mm
23:52 -13.4 °C -14.8 °C 34567.7 hPa WNW 5.1 km/h 20.8 km/h 85 % 0 mm
23:57 -13.4 °C -14.7 °C 34577.8 hPa West 2.6 km/h 20.8 km/h 86 % 0 mm
Meteo18
Compliments of Weather Underground - 4 mb

Script developed by  Jim McMurry - jmcmurry@mwt.net Adapted for the template by  Wim van der Kuil - Leuven-Template.eu

You find our weather info also at:

European Weather Network

Weather Underground

Equipment we use:

Weather-station
Davis Vue

Weather-program
Meteobridge

Weather-server
Raspberry PI 2 B+

Provider
1 and 1

Davis Vue

Meteobridge

Raspberry PI 2 B+

1 and 1